Anderson, California
Current Conditions -  °F | °C
As of 2:53 AM on Friday 24 Oct 2014 (Local Time) from KRDD Reporting Station
Overcast Overcast  
Wind Chill: 56°   Ceiling: 8000
Heat Index: 56°   Visibility: 10mi
Dew Point: 54°   Wind: 3mph
Humidity: 93%   Direction: 290°WNW
Pressure: 29.99"   Gusts: NA
Location:  40.45°N, 122.3°W
Report Text: KRDD 240953Z AUTO 29003KT 10SM FEW050 OVC080 13/12 A2999 RMK AO2 SLP153 T01330122
Loading
Personal Weather Stations






























Interactive Weather Map
Tropical Storm Tracking
New forecast layout! Learn more

10-Day Weather Forecast

Advertisements
Track Severe Weather on mobile